LSZG Airport Information

Runway Information
Runway 07 Length 0 ft width 0 ft
Elevation 1407 ft Threshold 0 ft Heading 0
Runway 25 Length 0 ft Width 0 ft
Elevation 1407 ft Threshold 0 ft Heading 0
Runway 07C Length 3281 ft width 75 ft
Elevation 1407 ft Threshold 443 ft Heading 66
Runway 25C Length 3281 ft Width 75 ft
Elevation 1405 ft Threshold 0 ft Heading 246
Runway 07L Length 1640 ft width 98 ft
Elevation 0 ft Threshold 213 ft Heading 66
Runway 25R Length 1640 ft Width 98 ft
Elevation 0 ft Threshold 85 ft Heading 246
Runway 07R Length 2297 ft width 66 ft
Elevation 0 ft Threshold 459 ft Heading 70
Runway 25L Length 2297 ft Width 66 ft
Elevation 0 ft Threshold 0 ft Heading 250
Airport Frequencies
Type APP Name Bern Appro Frequency 127.325 MHZ
Type ATIS Name ATIS Frequency 121.1 MHZ
Type GND Name GND Frequency 121.8 MHZ
Type TWR Name ge, en Frequency 120.1 MHZ
Airport Navaids
Type VOR-DME Name Grenchen Frequency 115450 KHZ
Type NDB Name Grenchen Frequency 326 KHZ
Airport Weather Information & NOTAM
ADDS - METARS form results

(1845 UTC 17 October 2018)
Data provider http://aviationweather.gov/metar/data/
 
METAR text: LSZG 171820Z AUTO 00000KT CAVOK 11/06 Q1017
Conditions at: LSZG (GRENCHEN , CH) observed 1820 UTC 17 October 2018
Temperature: 11.0°C (52°F)
Dewpoint: 6.0°C (43°F) [RH = 71%]
Pressure (altimeter): 30.03 inches Hg (1017.0 mb)
Winds: calm
Visibility: 6 or more miles (10+ km)
Ceiling: ceiling and visibility are OK
Clouds: unknown
Weather: no significant weather observed at this time

METAR text: LSZG 171750Z AUTO 05003KT 9999 NCD 11/06 Q1017
Conditions at: LSZG (GRENCHEN , CH) observed 1750 UTC 17 October 2018
Temperature: 11.0°C (52°F)
Dewpoint: 6.0°C (43°F) [RH = 71%]
Pressure (altimeter): 30.03 inches Hg (1017.0 mb)
Winds: from the NE (50 degrees) at 3 MPH (3 knots; 1.5 m/s)
Visibility: 6 or more miles (10+ km)
Ceiling: at least 12,000 feet AGL
Clouds: sky clear below 12,000 feet AGL
Weather: no significant weather observed at this time

Forecast for: LSZG (GRENCHEN , CH)
Text: TAF LSZG 171425Z 1715/1724 07006KT CAVOK
Forecast period: 1500 UTC 17 October 2018 to 0000 UTC 18 October 2018
Forecast type: FROM: standard forecast or significant change
Winds: from the ENE (70 degrees) at 7 MPH (6 knots; 3.1 m/s)
Visibility: 6 or more miles 10+ km)
Ceiling: unknown
Clouds: missing
Weather: NSW  (no significant weather)
Text: PROB40 1720/1724 4500 BR
Forecast period: 2000 UTC 17 October 2018 to 0000 UTC 18 October 2018
Forecast type: PROBABLE: 40 percent likelihood of the following during this time
Visibility: 2.80 miles (4.51 km)
Ceiling: unknown
Clouds: missing
Weather: BR  (mist)